createdAt,value
2022-12-11T00:04:42.971Z,34.20
2022-12-11T00:09:45.693Z,24.25
2022-12-11T00:14:48.332Z,37.65
2022-12-11T00:19:51.150Z,27.50
2022-12-11T00:24:53.881Z,13.75
2022-12-11T00:29:56.522Z,21.38
2022-12-11T00:34:59.236Z,15.38
2022-12-11T00:40:02.037Z,13.88
2022-12-11T00:45:05.821Z,21.50
2022-12-11T00:55:11.964Z,19.65
2022-12-11T01:00:15.767Z,16.88
2022-12-11T01:05:18.494Z,15.80
2022-12-11T01:10:24.529Z,18.92
2022-12-11T01:15:30.202Z,1.85
2022-12-11T01:20:33.155Z,11.70
2022-12-11T01:25:38.489Z,20.52
2022-12-11T01:30:43.534Z,17.40
2022-12-11T01:35:46.222Z,5.03
2022-12-11T01:40:51.634Z,13.25
2022-12-11T01:45:54.381Z,5.93
2022-12-11T01:50:59.415Z,15.95
2022-12-11T01:56:04.297Z,20.73
2022-12-11T02:01:07.098Z,22.90
2022-12-11T02:06:33.913Z,21.80
2022-12-11T02:11:49.839Z,19.63
2022-12-11T02:17:05.770Z,11.57
2022-12-11T02:22:13.851Z,17.58
2022-12-11T02:27:29.936Z,16.60
2022-12-11T02:32:40.236Z,25.92
2022-12-11T02:37:45.743Z,25.27
2022-12-11T02:42:48.844Z,24.27
2022-12-11T02:47:52.976Z,20.83
2022-12-11T02:52:56.948Z,25.17
2022-12-11T02:58:22.863Z,14.20
2022-12-11T03:03:25.628Z,19.00
2022-12-11T03:08:28.397Z,13.98
2022-12-11T03:13:31.963Z,19.05
2022-12-11T03:18:52.032Z,25.65
2022-12-11T03:23:59.420Z,27.05
2022-12-11T03:29:06.492Z,17.52
2022-12-11T03:34:31.763Z,16.60
2022-12-11T03:39:38.884Z,12.90
2022-12-11T03:44:43.472Z,16.15
2022-12-11T03:49:46.765Z,29.67
2022-12-11T03:54:51.203Z,31.45
2022-12-11T03:59:53.978Z,22.02
2022-12-11T04:04:56.800Z,22.90
2022-12-11T04:20:27.517Z,21.98
2022-12-11T04:25:30.203Z,18.60
2022-12-11T04:30:34.451Z,24.92
2022-12-11T04:35:37.284Z,25.88
2022-12-11T04:40:39.963Z,41.78
2022-12-11T04:45:42.677Z,21.17
2022-12-11T04:50:45.437Z,30.48
2022-12-11T05:00:50.841Z,33.70
2022-12-11T05:11:01.346Z,37.50
2022-12-11T05:16:05.911Z,33.30
2022-12-11T05:21:11.847Z,11.45
2022-12-11T05:26:18.378Z,26.20
2022-12-11T05:31:26.281Z,13.85
2022-12-11T05:36:31.740Z,8.73
2022-12-11T05:41:34.551Z,14.02
2022-12-11T05:51:40.456Z,18.08
2022-12-11T05:56:43.177Z,15.65
2022-12-11T06:01:46.487Z,13.15
2022-12-11T06:06:49.255Z,5.95
2022-12-11T06:11:51.963Z,18.58
2022-12-11T06:16:54.601Z,9.75
2022-12-11T06:21:57.230Z,12.55
2022-12-11T06:26:59.979Z,24.95
2022-12-11T06:32:03.069Z,29.95
2022-12-11T06:37:05.883Z,34.28
2022-12-11T06:42:08.536Z,20.10
2022-12-11T06:47:11.218Z,5.88
2022-12-11T06:57:21.550Z,10.48
2022-12-11T07:07:26.702Z,21.92
2022-12-11T07:12:29.403Z,17.65
2022-12-11T07:17:32.413Z,18.25
2022-12-11T07:22:35.456Z,15.05
2022-12-11T07:27:38.227Z,17.05
2022-12-11T07:47:49.342Z,17.40
2022-12-11T07:57:54.975Z,16.00
2022-12-11T08:02:57.610Z,19.08
2022-12-11T08:08:00.624Z,10.25
2022-12-11T08:23:08.634Z,4.10
2022-12-11T08:28:11.475Z,12.43
2022-12-11T08:38:20.909Z,17.23
2022-12-11T08:43:26.487Z,8.52
2022-12-11T08:48:29.327Z,18.35
2022-12-11T08:53:32.914Z,3.30
2022-12-11T08:58:36.164Z,23.63
2022-12-11T09:03:40.371Z,17.70
2022-12-11T09:08:50.365Z,22.00
2022-12-11T09:13:55.300Z,12.07
2022-12-11T09:18:59.163Z,15.43
2022-12-11T09:24:02.515Z,12.88
2022-12-11T09:29:06.210Z,17.23
2022-12-11T09:34:11.802Z,14.85
2022-12-11T09:39:16.923Z,16.60
2022-12-11T09:44:34.777Z,24.52
2022-12-11T09:49:43.400Z,15.68
2022-12-11T09:54:59.858Z,9.93
2022-12-11T10:00:11.557Z,20.35
2022-12-11T10:05:32.541Z,12.55
2022-12-11T10:10:45.393Z,14.83
2022-12-11T10:15:57.253Z,10.23
2022-12-11T10:21:02.433Z,10.25
2022-12-11T10:26:08.685Z,12.88
2022-12-11T10:31:39.526Z,15.55
2022-12-11T10:36:42.977Z,8.37
2022-12-11T10:41:48.651Z,10.02
2022-12-11T10:47:18.099Z,15.27
2022-12-11T10:52:26.751Z,13.30
2022-12-11T10:57:34.711Z,21.63
2022-12-11T11:02:38.997Z,20.65
2022-12-11T11:07:42.245Z,12.00
2022-12-11T11:12:47.583Z,18.38
2022-12-11T11:18:01.291Z,21.38
2022-12-11T11:23:09.965Z,31.08
2022-12-11T11:28:21.550Z,28.63
2022-12-11T11:33:25.006Z,30.80
2022-12-11T11:38:37.714Z,48.67
2022-12-11T11:43:54.834Z,19.38
2022-12-11T11:49:26.403Z,41.70
2022-12-11T11:54:42.735Z,55.85
2022-12-11T11:59:48.190Z,45.38
2022-12-11T12:04:51.738Z,39.45
2022-12-11T12:10:12.821Z,54.38
2022-12-11T12:15:31.308Z,24.02
2022-12-11T12:20:36.881Z,58.40
2022-12-11T12:25:44.628Z,48.50
2022-12-11T12:31:02.578Z,38.80
2022-12-11T12:36:23.922Z,16.08
2022-12-11T12:41:54.188Z,102.65
2022-12-11T12:47:02.604Z,112.68
2022-12-11T12:52:07.533Z,126.55
2022-12-11T12:57:10.734Z,157.75
2022-12-11T13:02:14.736Z,165.32
2022-12-11T13:07:21.369Z,140.18
2022-12-11T13:12:52.135Z,110.55
2022-12-11T13:17:54.907Z,110.60
2022-12-11T13:23:36.377Z,105.53
2022-12-11T13:28:39.042Z,103.50
2022-12-11T13:33:49.793Z,104.38
2022-12-11T13:38:59.526Z,79.90
2022-12-11T13:44:03.459Z,96.53
2022-12-11T13:49:17.683Z,118.07
2022-12-11T13:54:20.445Z,85.72
2022-12-11T13:59:32.586Z,111.50
2022-12-11T14:04:35.837Z,103.47
2022-12-11T14:09:44.227Z,89.15
2022-12-11T14:14:53.307Z,97.45
2022-12-11T14:19:58.371Z,104.13
2022-12-11T14:25:08.675Z,89.95
2022-12-11T14:30:22.195Z,80.90
2022-12-11T14:35:34.257Z,92.07
2022-12-11T14:40:43.655Z,105.45
2022-12-11T14:45:49.039Z,71.18
2022-12-11T14:50:55.930Z,44.58
2022-12-11T14:56:01.910Z,60.20
2022-12-11T15:01:22.337Z,57.47
2022-12-11T15:06:29.262Z,70.57
2022-12-11T15:11:33.123Z,66.05
2022-12-11T15:16:39.016Z,110.65
2022-12-11T15:21:42.019Z,104.00
2022-12-11T15:26:46.343Z,73.50
2022-12-11T15:32:19.473Z,80.85
2022-12-11T15:37:27.970Z,123.15
2022-12-11T15:42:34.689Z,73.25
2022-12-11T15:47:37.721Z,32.17
2022-12-11T15:52:40.520Z,21.70
2022-12-11T15:57:46.817Z,60.47
2022-12-11T16:02:49.507Z,41.92
2022-12-11T16:07:56.852Z,43.13
2022-12-11T16:13:03.126Z,54.35
2022-12-11T16:18:12.742Z,11.77
2022-12-11T16:23:16.715Z,34.20
2022-12-11T16:28:21.519Z,25.83
2022-12-11T16:33:26.757Z,21.63
2022-12-11T16:38:29.749Z,17.63
2022-12-11T16:43:33.196Z,13.82
2022-12-11T16:48:36.143Z,24.80
2022-12-11T16:53:39.019Z,38.83
2022-12-11T16:58:41.789Z,39.45
2022-12-11T17:03:44.870Z,30.98
2022-12-11T17:08:47.981Z,28.33
2022-12-11T17:13:58.082Z,40.17
2022-12-11T17:19:01.015Z,42.22
2022-12-11T17:24:03.761Z,23.40
2022-12-11T17:29:06.524Z,10.93
2022-12-11T17:34:09.178Z,17.77
2022-12-11T17:39:11.877Z,27.83
2022-12-11T17:44:14.638Z,30.00
2022-12-11T17:49:17.649Z,14.13
2022-12-11T17:54:20.575Z,15.20
2022-12-11T17:59:23.277Z,28.13
2022-12-11T18:04:26.289Z,27.95
2022-12-11T18:09:29.026Z,18.98
2022-12-11T18:14:31.908Z,16.20
2022-12-11T18:19:34.684Z,16.95
2022-12-11T18:24:37.409Z,22.05
2022-12-11T18:29:40.267Z,23.63
2022-12-11T18:34:43.144Z,8.20
2022-12-11T18:39:45.832Z,12.35
2022-12-11T18:44:48.602Z,14.38
2022-12-11T18:49:51.392Z,12.60
2022-12-11T18:54:54.170Z,14.30
2022-12-11T18:59:57.309Z,19.20
2022-12-11T19:05:00.240Z,8.98
2022-12-11T19:10:02.900Z,1.95
2022-12-11T19:15:06.498Z,2.88
2022-12-11T19:20:40.159Z,24.88
2022-12-11T19:25:33.493Z,14.65
2022-12-11T19:30:36.289Z,22.05
2022-12-11T19:35:38.892Z,11.00
2022-12-11T19:40:42.829Z,21.77
2022-12-11T19:45:46.251Z,19.02
2022-12-11T19:50:49.084Z,3.60
2022-12-11T19:55:52.598Z,24.83
2022-12-11T20:00:55.362Z,16.27
2022-12-11T20:06:06.449Z,8.63
2022-12-11T20:11:15.883Z,18.20
2022-12-11T20:16:33.725Z,15.85
2022-12-11T20:21:43.386Z,17.45
2022-12-11T20:26:47.498Z,30.05
2022-12-11T20:31:51.393Z,14.45
2022-12-11T20:36:54.525Z,21.77
2022-12-11T20:41:57.226Z,16.80
2022-12-11T20:47:00.049Z,24.23
2022-12-11T20:52:03.018Z,9.60
2022-12-11T20:57:05.707Z,10.23
2022-12-11T21:02:11.485Z,26.75
2022-12-11T21:07:14.289Z,29.67
2022-12-11T21:12:16.958Z,16.70
2022-12-11T21:17:19.675Z,5.18
2022-12-11T21:22:22.422Z,17.98
2022-12-11T21:27:25.184Z,28.05
2022-12-11T21:32:28.095Z,22.63
2022-12-11T21:37:30.885Z,1.48
2022-12-11T21:42:33.828Z,15.88
2022-12-11T21:47:36.540Z,19.38
2022-12-11T21:52:39.418Z,6.53
2022-12-11T21:57:42.116Z,13.18
2022-12-11T22:02:44.748Z,20.05
2022-12-11T22:07:47.544Z,24.40
2022-12-11T22:12:50.335Z,21.83
2022-12-11T22:17:53.044Z,4.05
2022-12-11T22:22:55.675Z,14.00
2022-12-11T22:27:58.336Z,15.50
2022-12-11T22:33:01.104Z,19.67
2022-12-11T22:38:04.419Z,19.92
2022-12-11T22:43:07.260Z,19.73
2022-12-11T22:48:10.219Z,26.83
2022-12-11T22:53:13.150Z,11.40
2022-12-11T22:58:21.394Z,26.25
2022-12-11T23:03:24.447Z,23.42
2022-12-11T23:08:27.255Z,21.98
2022-12-11T23:13:30.009Z,15.73
2022-12-11T23:18:33.218Z,13.85
2022-12-11T23:23:35.984Z,23.52
2022-12-11T23:28:40.266Z,14.70
2022-12-11T23:33:42.981Z,27.35
2022-12-11T23:38:50.930Z,9.32
2022-12-11T23:43:57.158Z,26.70
2022-12-11T23:48:59.825Z,9.80
2022-12-11T23:54:02.476Z,8.65
2022-12-11T23:59:05.126Z,12.82
